sensor_id;sensor_type;location;lat;lon;timestamp;P1;durP1;ratioP1;P2;durP2;ratioP2
80985;SDS011;70451;51.226;6.412;2023-06-26T00:00:20;9.32;;;8.07;;
80985;SDS011;70451;51.226;6.412;2023-06-26T00:02:35;11.50;;;8.20;;
80985;SDS011;70451;51.226;6.412;2023-06-26T00:04:50;9.13;;;6.97;;
80985;SDS011;70451;51.226;6.412;2023-06-26T00:07:09;12.02;;;7.93;;
80985;SDS011;70451;51.226;6.412;2023-06-26T00:09:25;10.98;;;8.23;;
80985;SDS011;70451;51.226;6.412;2023-06-26T00:11:40;11.10;;;8.50;;
80985;SDS011;70451;51.226;6.412;2023-06-26T00:13:55;9.63;;;7.82;;
80985;SDS011;70451;51.226;6.412;2023-06-26T00:16:11;9.93;;;7.47;;
80985;SDS011;70451;51.226;6.412;2023-06-26T00:18:26;7.95;;;6.70;;
80985;SDS011;70451;51.226;6.412;2023-06-26T00:20:41;10.90;;;7.68;;
80985;SDS011;70451;51.226;6.412;2023-06-26T00:22:57;8.00;;;7.18;;
80985;SDS011;70451;51.226;6.412;2023-06-26T00:25:13;12.10;;;7.38;;
80985;SDS011;70451;51.226;6.412;2023-06-26T00:27:29;11.25;;;7.20;;
80985;SDS011;70451;51.226;6.412;2023-06-26T00:29:44;9.65;;;7.28;;
80985;SDS011;70451;51.226;6.412;2023-06-26T00:32:00;8.68;;;6.80;;
80985;SDS011;70451;51.226;6.412;2023-06-26T00:34:15;8.88;;;7.18;;
80985;SDS011;70451;51.226;6.412;2023-06-26T00:36:30;9.30;;;7.10;;
80985;SDS011;70451;51.226;6.412;2023-06-26T00:38:46;12.80;;;7.55;;
80985;SDS011;70451;51.226;6.412;2023-06-26T00:41:01;8.48;;;7.38;;
80985;SDS011;70451;51.226;6.412;2023-06-26T00:43:16;12.48;;;8.30;;
80985;SDS011;70451;51.226;6.412;2023-06-26T00:45:31;11.38;;;7.80;;
80985;SDS011;70451;51.226;6.412;2023-06-26T00:47:47;8.80;;;7.20;;
80985;SDS011;70451;51.226;6.412;2023-06-26T00:50:03;10.88;;;6.47;;
80985;SDS011;70451;51.226;6.412;2023-06-26T00:52:19;8.93;;;7.05;;
80985;SDS011;70451;51.226;6.412;2023-06-26T00:54:35;10.68;;;7.25;;
80985;SDS011;70451;51.226;6.412;2023-06-26T00:56:50;9.13;;;6.88;;
80985;SDS011;70451;51.226;6.412;2023-06-26T00:59:05;7.82;;;6.80;;
80985;SDS011;70451;51.226;6.412;2023-06-26T01:03:38;10.10;;;8.02;;
80985;SDS011;70451;51.226;6.412;2023-06-26T01:05:55;10.15;;;7.15;;
80985;SDS011;70451;51.226;6.412;2023-06-26T01:08:13;11.27;;;7.72;;
80985;SDS011;70451;51.226;6.412;2023-06-26T01:10:30;8.88;;;7.30;;
80985;SDS011;70451;51.226;6.412;2023-06-26T01:12:46;10.20;;;7.03;;
80985;SDS011;70451;51.226;6.412;2023-06-26T01:15:01;11.80;;;7.45;;
80985;SDS011;70451;51.226;6.412;2023-06-26T01:17:17;8.90;;;7.55;;
80985;SDS011;70451;51.226;6.412;2023-06-26T01:19:33;9.02;;;7.57;;
80985;SDS011;70451;51.226;6.412;2023-06-26T01:21:49;8.65;;;6.72;;
80985;SDS011;70451;51.226;6.412;2023-06-26T01:24:13;8.30;;;7.25;;
80985;SDS011;70451;51.226;6.412;2023-06-26T01:26:35;10.10;;;7.85;;
80985;SDS011;70451;51.226;6.412;2023-06-26T01:28:51;8.43;;;7.53;;
80985;SDS011;70451;51.226;6.412;2023-06-26T01:31:08;8.63;;;7.47;;
80985;SDS011;70451;51.226;6.412;2023-06-26T01:33:28;8.10;;;7.20;;
80985;SDS011;70451;51.226;6.412;2023-06-26T01:35:45;10.15;;;6.82;;
80985;SDS011;70451;51.226;6.412;2023-06-26T01:38:16;9.40;;;7.30;;
80985;SDS011;70451;51.226;6.412;2023-06-26T01:40:34;8.57;;;7.22;;
80985;SDS011;70451;51.226;6.412;2023-06-26T01:42:49;8.77;;;6.95;;
80985;SDS011;70451;51.226;6.412;2023-06-26T01:45:16;7.22;;;6.25;;
80985;SDS011;70451;51.226;6.412;2023-06-26T01:47:40;8.23;;;6.13;;
80985;SDS011;70451;51.226;6.412;2023-06-26T01:52:29;8.32;;;6.47;;
80985;SDS011;70451;51.226;6.412;2023-06-26T01:55:12;7.13;;;6.43;;
80985;SDS011;70451;51.226;6.412;2023-06-26T01:57:32;7.15;;;6.25;;
80985;SDS011;70451;51.226;6.412;2023-06-26T01:59:50;9.25;;;7.00;;
80985;SDS011;70451;51.226;6.412;2023-06-26T02:02:07;9.43;;;6.18;;
80985;SDS011;70451;51.226;6.412;2023-06-26T02:04:23;8.68;;;7.22;;
80985;SDS011;70451;51.226;6.412;2023-06-26T02:06:38;7.38;;;6.50;;
80985;SDS011;70451;51.226;6.412;2023-06-26T02:08:54;7.53;;;6.32;;
80985;SDS011;70451;51.226;6.412;2023-06-26T02:11:11;7.97;;;6.55;;
80985;SDS011;70451;51.226;6.412;2023-06-26T02:13:26;7.35;;;6.43;;
80985;SDS011;70451;51.226;6.412;2023-06-26T02:15:42;8.95;;;7.03;;
80985;SDS011;70451;51.226;6.412;2023-06-26T02:17:57;9.00;;;6.68;;
80985;SDS011;70451;51.226;6.412;2023-06-26T02:20:12;7.70;;;6.88;;
80985;SDS011;70451;51.226;6.412;2023-06-26T02:22:28;7.50;;;6.72;;
80985;SDS011;70451;51.226;6.412;2023-06-26T02:24:43;8.20;;;7.22;;
80985;SDS011;70451;51.226;6.412;2023-06-26T02:26:59;9.57;;;7.50;;
80985;SDS011;70451;51.226;6.412;2023-06-26T02:29:14;9.00;;;6.78;;
80985;SDS011;70451;51.226;6.412;2023-06-26T02:31:30;8.85;;;7.13;;
80985;SDS011;70451;51.226;6.412;2023-06-26T02:33:45;10.27;;;7.80;;
80985;SDS011;70451;51.226;6.412;2023-06-26T02:36:00;7.90;;;7.10;;
80985;SDS011;70451;51.226;6.412;2023-06-26T02:38:16;7.60;;;6.70;;
80985;SDS011;70451;51.226;6.412;2023-06-26T02:40:31;7.63;;;6.32;;
80985;SDS011;70451;51.226;6.412;2023-06-26T02:42:47;8.55;;;6.57;;
80985;SDS011;70451;51.226;6.412;2023-06-26T02:45:02;8.18;;;7.00;;
80985;SDS011;70451;51.226;6.412;2023-06-26T02:47:18;8.85;;;6.97;;
80985;SDS011;70451;51.226;6.412;2023-06-26T02:49:33;7.97;;;7.10;;
80985;SDS011;70451;51.226;6.412;2023-06-26T02:51:48;9.68;;;7.32;;
80985;SDS011;70451;51.226;6.412;2023-06-26T02:54:04;9.43;;;7.32;;
80985;SDS011;70451;51.226;6.412;2023-06-26T02:56:19;8.02;;;7.25;;
80985;SDS011;70451;51.226;6.412;2023-06-26T02:58:34;10.38;;;7.07;;
80985;SDS011;70451;51.226;6.412;2023-06-26T03:00:50;7.93;;;7.13;;
80985;SDS011;70451;51.226;6.412;2023-06-26T03:03:06;11.07;;;7.72;;
80985;SDS011;70451;51.226;6.412;2023-06-26T03:05:21;9.20;;;7.43;;
80985;SDS011;70451;51.226;6.412;2023-06-26T03:07:38;9.40;;;7.00;;
80985;SDS011;70451;51.226;6.412;2023-06-26T03:09:53;10.02;;;6.97;;
80985;SDS011;70451;51.226;6.412;2023-06-26T03:12:09;9.10;;;7.45;;
80985;SDS011;70451;51.226;6.412;2023-06-26T03:14:24;9.27;;;7.45;;
80985;SDS011;70451;51.226;6.412;2023-06-26T03:16:40;9.25;;;6.95;;
80985;SDS011;70451;51.226;6.412;2023-06-26T03:18:55;8.48;;;7.30;;
80985;SDS011;70451;51.226;6.412;2023-06-26T03:21:10;10.32;;;7.80;;
80985;SDS011;70451;51.226;6.412;2023-06-26T03:23:26;7.80;;;6.80;;
80985;SDS011;70451;51.226;6.412;2023-06-26T03:25:41;8.60;;;6.55;;
80985;SDS011;70451;51.226;6.412;2023-06-26T03:27:56;9.63;;;7.57;;
80985;SDS011;70451;51.226;6.412;2023-06-26T03:30:12;10.40;;;7.05;;
80985;SDS011;70451;51.226;6.412;2023-06-26T03:32:27;10.43;;;7.05;;
80985;SDS011;70451;51.226;6.412;2023-06-26T03:34:43;7.70;;;6.70;;
80985;SDS011;70451;51.226;6.412;2023-06-26T03:36:58;8.40;;;6.25;;
80985;SDS011;70451;51.226;6.412;2023-06-26T03:39:13;8.70;;;6.43;;
80985;SDS011;70451;51.226;6.412;2023-06-26T03:41:29;10.38;;;6.65;;
80985;SDS011;70451;51.226;6.412;2023-06-26T03:43:44;9.02;;;6.05;;
80985;SDS011;70451;51.226;6.412;2023-06-26T03:45:59;8.48;;;6.05;;
80985;SDS011;70451;51.226;6.412;2023-06-26T03:48:15;7.13;;;5.43;;
80985;SDS011;70451;51.226;6.412;2023-06-26T03:50:30;7.05;;;5.38;;
80985;SDS011;70451;51.226;6.412;2023-06-26T03:52:45;7.75;;;6.00;;
80985;SDS011;70451;51.226;6.412;2023-06-26T03:55:01;7.53;;;5.28;;
80985;SDS011;70451;51.226;6.412;2023-06-26T03:57:16;7.82;;;5.82;;
80985;SDS011;70451;51.226;6.412;2023-06-26T03:59:31;8.23;;;5.75;;
80985;SDS011;70451;51.226;6.412;2023-06-26T04:01:47;7.25;;;6.45;;
80985;SDS011;70451;51.226;6.412;2023-06-26T04:04:02;7.40;;;5.85;;
80985;SDS011;70451;51.226;6.412;2023-06-26T04:06:18;6.90;;;5.70;;
80985;SDS011;70451;51.226;6.412;2023-06-26T04:08:34;7.85;;;5.40;;
80985;SDS011;70451;51.226;6.412;2023-06-26T04:10:49;6.88;;;5.15;;
80985;SDS011;70451;51.226;6.412;2023-06-26T04:13:07;6.03;;;5.43;;
80985;SDS011;70451;51.226;6.412;2023-06-26T04:15:22;7.43;;;5.70;;
80985;SDS011;70451;51.226;6.412;2023-06-26T04:17:37;6.85;;;5.03;;
80985;SDS011;70451;51.226;6.412;2023-06-26T04:19:53;9.13;;;5.93;;
80985;SDS011;70451;51.226;6.412;2023-06-26T04:22:08;7.38;;;5.35;;
80985;SDS011;70451;51.226;6.412;2023-06-26T04:24:23;9.50;;;4.95;;
80985;SDS011;70451;51.226;6.412;2023-06-26T04:26:39;5.60;;;4.88;;
80985;SDS011;70451;51.226;6.412;2023-06-26T04:28:56;6.68;;;5.13;;
80985;SDS011;70451;51.226;6.412;2023-06-26T04:31:11;5.75;;;4.22;;
80985;SDS011;70451;51.226;6.412;2023-06-26T04:33:26;6.32;;;5.03;;
80985;SDS011;70451;51.226;6.412;2023-06-26T04:35:42;9.75;;;4.60;;
80985;SDS011;70451;51.226;6.412;2023-06-26T04:37:59;7.55;;;4.40;;
80985;SDS011;70451;51.226;6.412;2023-06-26T04:40:18;7.93;;;4.95;;
80985;SDS011;70451;51.226;6.412;2023-06-26T04:42:33;6.05;;;4.13;;
80985;SDS011;70451;51.226;6.412;2023-06-26T04:44:48;9.35;;;4.35;;
80985;SDS011;70451;51.226;6.412;2023-06-26T04:47:04;7.88;;;5.03;;
80985;SDS011;70451;51.226;6.412;2023-06-26T04:49:19;6.63;;;3.95;;
80985;SDS011;70451;51.226;6.412;2023-06-26T04:51:35;5.88;;;4.80;;
80985;SDS011;70451;51.226;6.412;2023-06-26T04:53:55;9.05;;;5.15;;
80985;SDS011;70451;51.226;6.412;2023-06-26T04:56:10;6.65;;;4.22;;
80985;SDS011;70451;51.226;6.412;2023-06-26T04:58:26;6.72;;;4.22;;
80985;SDS011;70451;51.226;6.412;2023-06-26T05:00:41;7.28;;;4.22;;
80985;SDS011;70451;51.226;6.412;2023-06-26T05:02:57;6.75;;;4.10;;
80985;SDS011;70451;51.226;6.412;2023-06-26T05:07:30;8.07;;;4.00;;
80985;SDS011;70451;51.226;6.412;2023-06-26T05:09:46;5.43;;;4.18;;
80985;SDS011;70451;51.226;6.412;2023-06-26T05:12:01;5.57;;;3.85;;
80985;SDS011;70451;51.226;6.412;2023-06-26T05:14:17;5.00;;;3.92;;
80985;SDS011;70451;51.226;6.412;2023-06-26T05:16:33;6.82;;;4.03;;
80985;SDS011;70451;51.226;6.412;2023-06-26T05:18:49;4.75;;;3.63;;
80985;SDS011;70451;51.226;6.412;2023-06-26T05:21:04;7.53;;;4.25;;
80985;SDS011;70451;51.226;6.412;2023-06-26T05:23:20;6.13;;;4.22;;
80985;SDS011;70451;51.226;6.412;2023-06-26T05:25:36;7.75;;;4.20;;
80985;SDS011;70451;51.226;6.412;2023-06-26T05:27:52;7.43;;;4.13;;
80985;SDS011;70451;51.226;6.412;2023-06-26T05:30:08;8.07;;;4.45;;
80985;SDS011;70451;51.226;6.412;2023-06-26T05:32:23;5.95;;;4.22;;
80985;SDS011;70451;51.226;6.412;2023-06-26T05:34:39;7.18;;;4.10;;
80985;SDS011;70451;51.226;6.412;2023-06-26T05:36:57;6.75;;;4.70;;
80985;SDS011;70451;51.226;6.412;2023-06-26T05:39:14;7.57;;;4.57;;
80985;SDS011;70451;51.226;6.412;2023-06-26T05:41:29;8.10;;;4.38;;
80985;SDS011;70451;51.226;6.412;2023-06-26T05:43:45;6.28;;;4.00;;
80985;SDS011;70451;51.226;6.412;2023-06-26T05:46:00;7.60;;;3.95;;
80985;SDS011;70451;51.226;6.412;2023-06-26T05:48:15;6.32;;;4.28;;
80985;SDS011;70451;51.226;6.412;2023-06-26T05:50:31;7.82;;;4.35;;
80985;SDS011;70451;51.226;6.412;2023-06-26T05:52:46;7.50;;;4.30;;
80985;SDS011;70451;51.226;6.412;2023-06-26T05:55:02;7.30;;;4.25;;
80985;SDS011;70451;51.226;6.412;2023-06-26T05:57:18;9.27;;;4.07;;
80985;SDS011;70451;51.226;6.412;2023-06-26T05:59:34;6.88;;;4.40;;
80985;SDS011;70451;51.226;6.412;2023-06-26T06:01:53;7.47;;;4.00;;
80985;SDS011;70451;51.226;6.412;2023-06-26T06:04:08;7.45;;;4.07;;
80985;SDS011;70451;51.226;6.412;2023-06-26T06:06:24;7.78;;;4.13;;
80985;SDS011;70451;51.226;6.412;2023-06-26T06:08:39;8.63;;;4.30;;
80985;SDS011;70451;51.226;6.412;2023-06-26T06:10:55;7.97;;;4.13;;
80985;SDS011;70451;51.226;6.412;2023-06-26T06:13:10;7.38;;;3.92;;
80985;SDS011;70451;51.226;6.412;2023-06-26T06:15:25;6.50;;;3.80;;
80985;SDS011;70451;51.226;6.412;2023-06-26T06:17:40;7.80;;;4.30;;
80985;SDS011;70451;51.226;6.412;2023-06-26T06:19:56;7.13;;;4.15;;
80985;SDS011;70451;51.226;6.412;2023-06-26T06:22:11;6.53;;;3.78;;
80985;SDS011;70451;51.226;6.412;2023-06-26T06:24:26;7.15;;;3.50;;
80985;SDS011;70451;51.226;6.412;2023-06-26T06:26:42;9.80;;;4.35;;
80985;SDS011;70451;51.226;6.412;2023-06-26T06:28:57;7.50;;;4.03;;
80985;SDS011;70451;51.226;6.412;2023-06-26T06:31:13;9.27;;;4.43;;
80985;SDS011;70451;51.226;6.412;2023-06-26T06:33:28;6.78;;;3.83;;
80985;SDS011;70451;51.226;6.412;2023-06-26T06:35:44;5.55;;;4.18;;
80985;SDS011;70451;51.226;6.412;2023-06-26T06:37:59;8.30;;;3.92;;
80985;SDS011;70451;51.226;6.412;2023-06-26T06:40:14;7.10;;;3.92;;
80985;SDS011;70451;51.226;6.412;2023-06-26T06:42:30;5.32;;;3.65;;
80985;SDS011;70451;51.226;6.412;2023-06-26T06:44:45;7.70;;;3.75;;
80985;SDS011;70451;51.226;6.412;2023-06-26T06:47:00;8.90;;;4.32;;
80985;SDS011;70451;51.226;6.412;2023-06-26T06:49:16;7.97;;;3.45;;
80985;SDS011;70451;51.226;6.412;2023-06-26T06:51:31;9.27;;;4.15;;
80985;SDS011;70451;51.226;6.412;2023-06-26T06:53:46;7.03;;;4.22;;
80985;SDS011;70451;51.226;6.412;2023-06-26T06:56:02;12.50;;;4.22;;
80985;SDS011;70451;51.226;6.412;2023-06-26T06:58:17;6.40;;;3.75;;
80985;SDS011;70451;51.226;6.412;2023-06-26T07:00:34;6.47;;;3.80;;
80985;SDS011;70451;51.226;6.412;2023-06-26T07:02:49;9.80;;;4.40;;
80985;SDS011;70451;51.226;6.412;2023-06-26T07:05:04;6.38;;;4.32;;
80985;SDS011;70451;51.226;6.412;2023-06-26T07:07:20;6.82;;;4.10;;
80985;SDS011;70451;51.226;6.412;2023-06-26T07:09:36;7.22;;;4.32;;
80985;SDS011;70451;51.226;6.412;2023-06-26T07:11:51;6.10;;;3.85;;
80985;SDS011;70451;51.226;6.412;2023-06-26T07:14:06;7.40;;;4.07;;
80985;SDS011;70451;51.226;6.412;2023-06-26T07:16:22;10.20;;;4.50;;
80985;SDS011;70451;51.226;6.412;2023-06-26T07:18:38;6.60;;;4.47;;
80985;SDS011;70451;51.226;6.412;2023-06-26T07:20:53;5.30;;;3.53;;
80985;SDS011;70451;51.226;6.412;2023-06-26T07:23:09;11.18;;;4.55;;
80985;SDS011;70451;51.226;6.412;2023-06-26T07:25:24;7.70;;;4.68;;
80985;SDS011;70451;51.226;6.412;2023-06-26T07:27:40;7.85;;;3.85;;
80985;SDS011;70451;51.226;6.412;2023-06-26T07:29:56;7.20;;;4.00;;
80985;SDS011;70451;51.226;6.412;2023-06-26T07:32:11;8.65;;;4.07;;
80985;SDS011;70451;51.226;6.412;2023-06-26T07:34:27;8.80;;;4.95;;
80985;SDS011;70451;51.226;6.412;2023-06-26T07:36:42;6.35;;;4.75;;
80985;SDS011;70451;51.226;6.412;2023-06-26T07:38:57;10.55;;;6.22;;
80985;SDS011;70451;51.226;6.412;2023-06-26T07:41:13;9.50;;;6.88;;
80985;SDS011;70451;51.226;6.412;2023-06-26T07:43:28;10.60;;;5.53;;
80985;SDS011;70451;51.226;6.412;2023-06-26T07:45:43;9.65;;;4.90;;
80985;SDS011;70451;51.226;6.412;2023-06-26T07:47:59;10.10;;;5.10;;
80985;SDS011;70451;51.226;6.412;2023-06-26T07:50:14;7.18;;;5.40;;
80985;SDS011;70451;51.226;6.412;2023-06-26T07:52:34;8.60;;;4.38;;
80985;SDS011;70451;51.226;6.412;2023-06-26T07:54:50;8.23;;;4.20;;
80985;SDS011;70451;51.226;6.412;2023-06-26T07:57:05;8.13;;;4.10;;
80985;SDS011;70451;51.226;6.412;2023-06-26T07:59:28;6.32;;;3.65;;
80985;SDS011;70451;51.226;6.412;2023-06-26T08:01:44;9.95;;;4.22;;
80985;SDS011;70451;51.226;6.412;2023-06-26T08:03:59;8.25;;;3.88;;
80985;SDS011;70451;51.226;6.412;2023-06-26T08:06:15;10.95;;;4.13;;
80985;SDS011;70451;51.226;6.412;2023-06-26T08:08:30;7.15;;;4.40;;
80985;SDS011;70451;51.226;6.412;2023-06-26T08:10:46;8.57;;;4.70;;
80985;SDS011;70451;51.226;6.412;2023-06-26T08:13:01;8.30;;;4.32;;
80985;SDS011;70451;51.226;6.412;2023-06-26T08:15:16;7.65;;;4.38;;
80985;SDS011;70451;51.226;6.412;2023-06-26T08:17:32;7.13;;;4.25;;
80985;SDS011;70451;51.226;6.412;2023-06-26T08:19:48;8.20;;;4.40;;
80985;SDS011;70451;51.226;6.412;2023-06-26T08:22:03;8.18;;;4.18;;
80985;SDS011;70451;51.226;6.412;2023-06-26T08:24:19;7.57;;;4.15;;
80985;SDS011;70451;51.226;6.412;2023-06-26T08:26:34;9.07;;;4.43;;
80985;SDS011;70451;51.226;6.412;2023-06-26T08:28:50;6.70;;;4.40;;
80985;SDS011;70451;51.226;6.412;2023-06-26T08:31:05;9.82;;;4.53;;
80985;SDS011;70451;51.226;6.412;2023-06-26T08:33:20;10.77;;;4.57;;
80985;SDS011;70451;51.226;6.412;2023-06-26T08:35:36;7.57;;;4.47;;
80985;SDS011;70451;51.226;6.412;2023-06-26T08:37:51;6.85;;;4.13;;
80985;SDS011;70451;51.226;6.412;2023-06-26T08:40:09;10.38;;;4.10;;
80985;SDS011;70451;51.226;6.412;2023-06-26T08:42:25;7.70;;;4.80;;
80985;SDS011;70451;51.226;6.412;2023-06-26T08:44:40;8.02;;;4.20;;
80985;SDS011;70451;51.226;6.412;2023-06-26T08:46:56;10.90;;;3.95;;
80985;SDS011;70451;51.226;6.412;2023-06-26T08:52:02;7.78;;;3.65;;
80985;SDS011;70451;51.226;6.412;2023-06-26T08:54:34;8.57;;;4.13;;
80985;SDS011;70451;51.226;6.412;2023-06-26T08:56:55;10.57;;;3.97;;
80985;SDS011;70451;51.226;6.412;2023-06-26T08:59:12;6.30;;;3.30;;
80985;SDS011;70451;51.226;6.412;2023-06-26T09:01:29;6.85;;;3.70;;
80985;SDS011;70451;51.226;6.412;2023-06-26T09:03:46;7.32;;;3.53;;
80985;SDS011;70451;51.226;6.412;2023-06-26T09:06:02;6.63;;;3.28;;
80985;SDS011;70451;51.226;6.412;2023-06-26T09:08:17;9.38;;;3.40;;
80985;SDS011;70451;51.226;6.412;2023-06-26T09:10:33;5.07;;;3.65;;
80985;SDS011;70451;51.226;6.412;2023-06-26T09:12:48;6.78;;;3.65;;
80985;SDS011;70451;51.226;6.412;2023-06-26T09:15:05;6.07;;;3.28;;
80985;SDS011;70451;51.226;6.412;2023-06-26T09:17:30;7.03;;;3.45;;
80985;SDS011;70451;51.226;6.412;2023-06-26T09:19:48;7.03;;;3.10;;
80985;SDS011;70451;51.226;6.412;2023-06-26T09:22:03;5.43;;;3.00;;
80985;SDS011;70451;51.226;6.412;2023-06-26T09:24:18;8.80;;;3.45;;
80985;SDS011;70451;51.226;6.412;2023-06-26T09:26:37;4.32;;;3.00;;
80985;SDS011;70451;51.226;6.412;2023-06-26T09:28:54;5.45;;;3.40;;
80985;SDS011;70451;51.226;6.412;2023-06-26T09:31:10;6.40;;;2.70;;
80985;SDS011;70451;51.226;6.412;2023-06-26T09:33:25;6.60;;;2.78;;
80985;SDS011;70451;51.226;6.412;2023-06-26T09:35:41;6.30;;;3.20;;
80985;SDS011;70451;51.226;6.412;2023-06-26T09:37:57;5.72;;;2.70;;
80985;SDS011;70451;51.226;6.412;2023-06-26T09:40:13;5.80;;;2.55;;
80985;SDS011;70451;51.226;6.412;2023-06-26T09:42:29;6.28;;;2.53;;
80985;SDS011;70451;51.226;6.412;2023-06-26T09:44:44;8.35;;;2.70;;
80985;SDS011;70451;51.226;6.412;2023-06-26T09:47:04;4.97;;;2.38;;
80985;SDS011;70451;51.226;6.412;2023-06-26T09:49:19;5.15;;;2.85;;
80985;SDS011;70451;51.226;6.412;2023-06-26T09:51:35;6.32;;;2.80;;
80985;SDS011;70451;51.226;6.412;2023-06-26T09:53:51;4.40;;;3.53;;
80985;SDS011;70451;51.226;6.412;2023-06-26T09:56:06;5.63;;;2.65;;
80985;SDS011;70451;51.226;6.412;2023-06-26T09:58:22;4.32;;;2.83;;
80985;SDS011;70451;51.226;6.412;2023-06-26T10:00:39;3.58;;;2.78;;
80985;SDS011;70451;51.226;6.412;2023-06-26T10:02:54;3.92;;;2.22;;
80985;SDS011;70451;51.226;6.412;2023-06-26T10:05:09;5.10;;;2.80;;
80985;SDS011;70451;51.226;6.412;2023-06-26T10:07:25;4.53;;;2.70;;
80985;SDS011;70451;51.226;6.412;2023-06-26T10:09:41;5.22;;;2.10;;
80985;SDS011;70451;51.226;6.412;2023-06-26T10:12:05;6.25;;;2.50;;
80985;SDS011;70451;51.226;6.412;2023-06-26T10:14:26;4.40;;;2.40;;
80985;SDS011;70451;51.226;6.412;2023-06-26T10:16:42;5.30;;;2.03;;
80985;SDS011;70451;51.226;6.412;2023-06-26T10:19:01;2.30;;;1.90;;
80985;SDS011;70451;51.226;6.412;2023-06-26T10:21:20;4.40;;;2.17;;
80985;SDS011;70451;51.226;6.412;2023-06-26T10:23:37;4.50;;;2.40;;
80985;SDS011;70451;51.226;6.412;2023-06-26T10:25:55;2.50;;;2.10;;
80985;SDS011;70451;51.226;6.412;2023-06-26T10:28:15;2.97;;;1.90;;
80985;SDS011;70451;51.226;6.412;2023-06-26T10:30:33;3.47;;;3.10;;
80985;SDS011;70451;51.226;6.412;2023-06-26T10:32:51;3.85;;;1.90;;
80985;SDS011;70451;51.226;6.412;2023-06-26T10:35:07;5.88;;;1.98;;
80985;SDS011;70451;51.226;6.412;2023-06-26T10:39:59;2.08;;;1.88;;
80985;SDS011;70451;51.226;6.412;2023-06-26T10:42:15;2.60;;;1.73;;
80985;SDS011;70451;51.226;6.412;2023-06-26T10:44:39;3.00;;;1.77;;
80985;SDS011;70451;51.226;6.412;2023-06-26T10:46:57;3.70;;;1.88;;
80985;SDS011;70451;51.226;6.412;2023-06-26T10:49:13;5.03;;;1.80;;
80985;SDS011;70451;51.226;6.412;2023-06-26T10:51:29;4.35;;;1.70;;
80985;SDS011;70451;51.226;6.412;2023-06-26T10:53:44;3.38;;;1.75;;
80985;SDS011;70451;51.226;6.412;2023-06-26T10:56:08;3.58;;;1.63;;
80985;SDS011;70451;51.226;6.412;2023-06-26T10:58:30;4.78;;;2.00;;
80985;SDS011;70451;51.226;6.412;2023-06-26T11:03:26;2.95;;;2.00;;
80985;SDS011;70451;51.226;6.412;2023-06-26T11:05:46;3.08;;;1.80;;
80985;SDS011;70451;51.226;6.412;2023-06-26T11:11:02;4.45;;;1.83;;
80985;SDS011;70451;51.226;6.412;2023-06-26T11:13:18;3.05;;;2.22;;
80985;SDS011;70451;51.226;6.412;2023-06-26T11:15:36;4.07;;;1.90;;
80985;SDS011;70451;51.226;6.412;2023-06-26T11:17:52;3.63;;;2.55;;
80985;SDS011;70451;51.226;6.412;2023-06-26T11:20:09;2.83;;;2.10;;
80985;SDS011;70451;51.226;6.412;2023-06-26T11:22:26;4.90;;;2.40;;
80985;SDS011;70451;51.226;6.412;2023-06-26T11:24:41;5.97;;;2.00;;
80985;SDS011;70451;51.226;6.412;2023-06-26T11:27:01;2.80;;;2.00;;
80985;SDS011;70451;51.226;6.412;2023-06-26T11:29:18;4.25;;;1.80;;
80985;SDS011;70451;51.226;6.412;2023-06-26T11:31:34;3.00;;;1.98;;
80985;SDS011;70451;51.226;6.412;2023-06-26T11:33:53;6.78;;;1.77;;
80985;SDS011;70451;51.226;6.412;2023-06-26T11:36:09;3.33;;;1.60;;
80985;SDS011;70451;51.226;6.412;2023-06-26T11:38:25;3.78;;;1.65;;
80985;SDS011;70451;51.226;6.412;2023-06-26T11:40:40;2.72;;;1.55;;
80985;SDS011;70451;51.226;6.412;2023-06-26T11:42:55;4.45;;;1.92;;
80985;SDS011;70451;51.226;6.412;2023-06-26T11:45:12;3.50;;;1.60;;
80985;SDS011;70451;51.226;6.412;2023-06-26T11:47:27;3.42;;;1.40;;
80985;SDS011;70451;51.226;6.412;2023-06-26T11:49:47;4.25;;;1.48;;
80985;SDS011;70451;51.226;6.412;2023-06-26T11:52:03;3.83;;;1.25;;
80985;SDS011;70451;51.226;6.412;2023-06-26T11:54:26;2.38;;;1.60;;
80985;SDS011;70451;51.226;6.412;2023-06-26T11:56:42;4.70;;;1.25;;
80985;SDS011;70451;51.226;6.412;2023-06-26T11:59:06;7.07;;;1.38;;
80985;SDS011;70451;51.226;6.412;2023-06-26T12:01:24;2.78;;;1.40;;
80985;SDS011;70451;51.226;6.412;2023-06-26T12:03:40;1.92;;;1.35;;
80985;SDS011;70451;51.226;6.412;2023-06-26T12:05:55;1.90;;;1.40;;
80985;SDS011;70451;51.226;6.412;2023-06-26T12:08:11;1.85;;;1.40;;
80985;SDS011;70451;51.226;6.412;2023-06-26T12:10:27;2.38;;;1.40;;
80985;SDS011;70451;51.226;6.412;2023-06-26T12:12:42;3.67;;;1.52;;
80985;SDS011;70451;51.226;6.412;2023-06-26T12:14:58;1.50;;;1.23;;
80985;SDS011;70451;51.226;6.412;2023-06-26T12:17:15;3.25;;;2.03;;
80985;SDS011;70451;51.226;6.412;2023-06-26T12:19:30;2.47;;;2.03;;
80985;SDS011;70451;51.226;6.412;2023-06-26T12:21:47;3.25;;;1.40;;
80985;SDS011;70451;51.226;6.412;2023-06-26T12:24:08;3.08;;;1.40;;
80985;SDS011;70451;51.226;6.412;2023-06-26T12:26:25;2.47;;;1.55;;
80985;SDS011;70451;51.226;6.412;2023-06-26T12:28:41;6.38;;;1.45;;
80985;SDS011;70451;51.226;6.412;2023-06-26T12:31:12;3.40;;;1.70;;
80985;SDS011;70451;51.226;6.412;2023-06-26T12:33:29;1.58;;;1.30;;
80985;SDS011;70451;51.226;6.412;2023-06-26T12:35:45;3.65;;;1.80;;
80985;SDS011;70451;51.226;6.412;2023-06-26T12:38:00;5.35;;;1.60;;
80985;SDS011;70451;51.226;6.412;2023-06-26T12:40:16;3.00;;;1.48;;
80985;SDS011;70451;51.226;6.412;2023-06-26T12:42:33;2.60;;;1.50;;
80985;SDS011;70451;51.226;6.412;2023-06-26T12:44:49;2.15;;;1.30;;
80985;SDS011;70451;51.226;6.412;2023-06-26T12:47:05;4.13;;;1.30;;
80985;SDS011;70451;51.226;6.412;2023-06-26T12:49:34;3.25;;;1.27;;
80985;SDS011;70451;51.226;6.412;2023-06-26T12:51:51;3.67;;;1.40;;
80985;SDS011;70451;51.226;6.412;2023-06-26T12:54:06;3.17;;;1.48;;
80985;SDS011;70451;51.226;6.412;2023-06-26T12:56:21;2.67;;;1.38;;
80985;SDS011;70451;51.226;6.412;2023-06-26T12:58:37;2.28;;;1.38;;
80985;SDS011;70451;51.226;6.412;2023-06-26T13:00:52;2.33;;;1.40;;
80985;SDS011;70451;51.226;6.412;2023-06-26T13:03:08;2.15;;;1.17;;
80985;SDS011;70451;51.226;6.412;2023-06-26T13:05:24;2.78;;;1.40;;
80985;SDS011;70451;51.226;6.412;2023-06-26T13:07:39;3.55;;;1.45;;
80985;SDS011;70451;51.226;6.412;2023-06-26T13:09:54;4.03;;;1.13;;
80985;SDS011;70451;51.226;6.412;2023-06-26T13:12:10;3.17;;;1.60;;
80985;SDS011;70451;51.226;6.412;2023-06-26T13:14:26;3.15;;;1.42;;
80985;SDS011;70451;51.226;6.412;2023-06-26T13:16:41;3.00;;;1.42;;
80985;SDS011;70451;51.226;6.412;2023-06-26T13:18:57;4.05;;;1.50;;
80985;SDS011;70451;51.226;6.412;2023-06-26T13:21:14;2.33;;;1.33;;
80985;SDS011;70451;51.226;6.412;2023-06-26T13:23:30;3.42;;;1.40;;
80985;SDS011;70451;51.226;6.412;2023-06-26T13:25:45;4.97;;;1.50;;
80985;SDS011;70451;51.226;6.412;2023-06-26T13:28:00;2.67;;;1.50;;
80985;SDS011;70451;51.226;6.412;2023-06-26T13:30:16;2.67;;;1.40;;
80985;SDS011;70451;51.226;6.412;2023-06-26T13:32:31;2.78;;;1.33;;
80985;SDS011;70451;51.226;6.412;2023-06-26T13:34:47;3.53;;;1.20;;
80985;SDS011;70451;51.226;6.412;2023-06-26T13:37:03;2.45;;;1.17;;
80985;SDS011;70451;51.226;6.412;2023-06-26T13:39:19;2.80;;;1.27;;
80985;SDS011;70451;51.226;6.412;2023-06-26T13:41:34;7.55;;;1.60;;
80985;SDS011;70451;51.226;6.412;2023-06-26T13:43:49;2.15;;;1.30;;
80985;SDS011;70451;51.226;6.412;2023-06-26T13:46:04;2.58;;;1.50;;
80985;SDS011;70451;51.226;6.412;2023-06-26T13:48:20;3.90;;;1.50;;
80985;SDS011;70451;51.226;6.412;2023-06-26T13:50:35;3.05;;;1.50;;
80985;SDS011;70451;51.226;6.412;2023-06-26T13:52:51;5.10;;;1.45;;
80985;SDS011;70451;51.226;6.412;2023-06-26T13:55:06;4.45;;;1.60;;
80985;SDS011;70451;51.226;6.412;2023-06-26T13:57:22;2.88;;;1.50;;